createdAt,value
2019-02-06T00:01:12.941Z,92.30
2019-02-06T00:02:17.840Z,92.10
2019-02-06T00:03:22.952Z,92.40
2019-02-06T00:04:27.411Z,92.90
2019-02-06T00:05:31.668Z,92.70
2019-02-06T00:06:36.035Z,92.10
2019-02-06T00:07:40.393Z,92.40
2019-02-06T00:08:44.611Z,92.20
2019-02-06T00:09:49.155Z,92.20
2019-02-06T00:10:54.109Z,91.70
2019-02-06T00:11:58.432Z,92.70
2019-02-06T00:13:02.664Z,92.40
2019-02-06T00:14:07.016Z,92.50
2019-02-06T00:15:11.303Z,92.60
2019-02-06T00:16:15.836Z,92.00
2019-02-06T00:17:20.179Z,92.40
2019-02-06T00:18:24.421Z,92.30
2019-02-06T00:19:28.816Z,92.70
2019-02-06T00:20:33.082Z,92.10
2019-02-06T00:21:37.308Z,91.40
2019-02-06T00:22:41.450Z,92.80
2019-02-06T00:23:45.595Z,93.70
2019-02-06T00:24:50.437Z,93.30
2019-02-06T00:25:54.840Z,92.90
2019-02-06T00:26:59.035Z,92.50
2019-02-06T00:28:03.428Z,92.10
2019-02-06T00:29:07.700Z,92.70
2019-02-06T00:30:12.717Z,92.90
2019-02-06T00:31:17.349Z,93.00
2019-02-06T00:32:21.589Z,93.50
2019-02-06T00:33:25.849Z,93.20
2019-02-06T00:34:30.100Z,92.80
2019-02-06T00:35:34.263Z,91.80
2019-02-06T00:36:38.532Z,91.90
2019-02-06T00:37:42.788Z,92.00
2019-02-06T00:38:46.973Z,92.00
2019-02-06T00:39:52.011Z,92.30
2019-02-06T00:40:56.346Z,92.30
2019-02-06T00:42:01.102Z,92.90
2019-02-06T00:43:05.701Z,92.40
2019-02-06T00:44:10.037Z,91.20
2019-02-06T00:45:14.631Z,92.20
2019-02-06T00:46:19.111Z,93.40
2019-02-06T00:47:23.324Z,92.80
2019-02-06T00:48:27.583Z,92.90
2019-02-06T00:49:31.899Z,92.90
2019-02-06T00:50:36.137Z,92.50
2019-02-06T00:51:40.289Z,92.60
2019-02-06T00:52:44.475Z,92.70
2019-02-06T00:53:48.754Z,91.80
2019-02-06T00:54:53.151Z,92.00
2019-02-06T00:55:57.396Z,92.70
2019-02-06T00:57:01.932Z,92.80
2019-02-06T00:58:06.417Z,92.20
2019-02-06T00:59:10.715Z,92.40
2019-02-06T01:00:20.449Z,93.40
2019-02-06T01:01:24.813Z,92.10
2019-02-06T01:02:29.136Z,91.80
2019-02-06T01:03:33.456Z,92.10
2019-02-06T01:04:37.656Z,92.30
2019-02-06T01:05:41.947Z,92.20
2019-02-06T01:06:46.214Z,92.50
2019-02-06T01:07:50.681Z,92.70
2019-02-06T01:08:55.063Z,92.80
2019-02-06T01:09:59.305Z,92.80
2019-02-06T01:11:03.569Z,92.60
2019-02-06T01:12:07.922Z,92.40
2019-02-06T01:13:12.295Z,92.70
2019-02-06T01:14:16.999Z,92.60
2019-02-06T01:15:21.434Z,92.70
2019-02-06T01:16:25.715Z,92.80
2019-02-06T01:17:30.114Z,92.80
2019-02-06T01:18:34.437Z,92.70
2019-02-06T01:19:38.758Z,92.60
2019-02-06T01:20:42.991Z,92.10
2019-02-06T01:21:47.272Z,92.60
2019-02-06T01:22:51.554Z,92.40
2019-02-06T01:23:55.764Z,91.40
2019-02-06T01:24:59.905Z,92.00
2019-02-06T01:26:04.215Z,92.20
2019-02-06T01:27:08.455Z,92.40
2019-02-06T01:28:12.735Z,92.10
2019-02-06T01:29:17.201Z,92.90
2019-02-06T01:30:24.141Z,93.50
2019-02-06T01:31:29.994Z,92.00
2019-02-06T01:32:34.257Z,91.10
2019-02-06T01:33:38.390Z,92.00
2019-02-06T01:34:42.747Z,92.00
2019-02-06T01:35:50.015Z,92.20
2019-02-06T01:36:52.829Z,92.40
2019-02-06T01:37:57.161Z,92.70
2019-02-06T01:39:01.362Z,92.60
2019-02-06T01:40:06.927Z,92.90
2019-02-06T01:41:11.505Z,92.40
2019-02-06T01:42:15.773Z,92.90
2019-02-06T01:43:20.051Z,92.90
2019-02-06T01:44:24.340Z,92.40
2019-02-06T01:45:28.607Z,92.40
2019-02-06T01:46:33.291Z,92.90
2019-02-06T01:47:37.556Z,92.50
2019-02-06T01:48:41.797Z,92.30
2019-02-06T01:49:46.061Z,92.50
2019-02-06T01:50:50.335Z,91.80
2019-02-06T01:51:54.566Z,92.10
2019-02-06T01:52:58.757Z,92.30
2019-02-06T01:54:03.065Z,92.10
2019-02-06T01:55:08.236Z,92.20
2019-02-06T01:56:12.506Z,92.00
2019-02-06T01:57:16.802Z,92.70
2019-02-06T01:58:21.153Z,92.50
2019-02-06T01:59:25.555Z,91.60
2019-02-06T02:00:29.882Z,91.70
2019-02-06T02:01:34.634Z,91.20
2019-02-06T02:02:39.267Z,91.00
2019-02-06T02:03:43.525Z,91.50
2019-02-06T02:04:47.803Z,91.80
2019-02-06T02:06:01.709Z,92.30
2019-02-06T02:06:57.991Z,91.90
2019-02-06T02:08:02.231Z,92.00
2019-02-06T02:09:15.027Z,91.70
2019-02-06T02:10:40.169Z,90.60
2019-02-06T02:11:44.499Z,91.80
2019-02-06T02:12:49.445Z,91.80
2019-02-06T02:13:53.777Z,91.50
2019-02-06T02:14:57.972Z,92.20
2019-02-06T02:16:02.316Z,92.40
2019-02-06T02:17:06.622Z,91.60
2019-02-06T02:18:10.776Z,91.80
2019-02-06T02:19:15.223Z,91.70
2019-02-06T02:20:21.182Z,91.60
2019-02-06T02:21:25.593Z,91.50
2019-02-06T02:22:29.743Z,90.90
2019-02-06T02:23:34.128Z,91.50
2019-02-06T02:24:38.558Z,91.60
2019-02-06T02:25:42.987Z,91.40
2019-02-06T02:26:47.307Z,91.90
2019-02-06T02:27:51.614Z,92.30
2019-02-06T02:28:56.200Z,92.30
2019-02-06T02:30:00.486Z,91.60
2019-02-06T02:31:04.998Z,91.20
2019-02-06T02:32:09.355Z,91.10
2019-02-06T02:33:13.502Z,91.40
2019-02-06T02:34:17.618Z,90.80
2019-02-06T02:35:21.783Z,90.40
2019-02-06T02:36:26.184Z,90.20
2019-02-06T02:37:30.545Z,89.70
2019-02-06T02:38:34.705Z,90.30
2019-02-06T02:39:38.995Z,90.60
2019-02-06T02:40:43.268Z,90.60
2019-02-06T02:41:47.797Z,90.90
2019-02-06T02:42:52.744Z,90.60
2019-02-06T02:43:56.891Z,90.10
2019-02-06T02:45:01.167Z,90.00
2019-02-06T02:46:05.721Z,90.10
2019-02-06T02:47:10.003Z,90.90
2019-02-06T02:48:14.301Z,90.90
2019-02-06T02:49:18.605Z,90.90
2019-02-06T02:50:22.767Z,91.00
2019-02-06T02:51:27.145Z,90.30
2019-02-06T02:52:31.458Z,90.40
2019-02-06T02:53:35.743Z,90.40
2019-02-06T02:54:40.030Z,91.00
2019-02-06T02:55:44.235Z,89.80
2019-02-06T02:56:48.516Z,89.50
2019-02-06T02:57:53.160Z,90.40
2019-02-06T02:58:57.470Z,90.20
2019-02-06T03:00:01.759Z,90.20
2019-02-06T03:01:24.063Z,90.00
2019-02-06T03:02:47.337Z,90.40
2019-02-06T03:04:00.782Z,90.00
2019-02-06T03:05:09.986Z,90.20
2019-02-06T03:06:27.218Z,89.80
2019-02-06T03:07:20.099Z,90.10
2019-02-06T03:08:24.280Z,90.70
2019-02-06T03:09:28.885Z,89.90
2019-02-06T03:10:33.518Z,88.50
2019-02-06T03:11:38.254Z,90.10
2019-02-06T03:12:42.537Z,90.40
2019-02-06T03:13:46.850Z,90.20
2019-02-06T03:14:51.176Z,90.90
2019-02-06T03:15:55.436Z,90.40
2019-02-06T03:17:03.067Z,90.10
2019-02-06T03:18:05.723Z,90.10
2019-02-06T03:19:10.005Z,90.30
2019-02-06T03:20:14.589Z,90.10
2019-02-06T03:21:18.862Z,90.20
2019-02-06T03:22:23.022Z,90.10
2019-02-06T03:23:27.217Z,89.70
2019-02-06T03:24:31.559Z,89.40
2019-02-06T03:25:35.783Z,89.70
2019-02-06T03:26:40.246Z,89.20
2019-02-06T03:27:45.013Z,89.20
2019-02-06T03:28:49.240Z,87.60
2019-02-06T03:29:53.699Z,89.00
2019-02-06T03:30:58.117Z,88.90
2019-02-06T03:32:02.370Z,89.30
2019-02-06T03:33:06.657Z,89.00
2019-02-06T03:34:10.808Z,90.30
2019-02-06T03:35:15.355Z,88.80
2019-02-06T03:36:19.622Z,89.50
2019-02-06T03:37:24.096Z,90.20
2019-02-06T03:38:28.407Z,90.40
2019-02-06T03:39:32.527Z,90.20
2019-02-06T03:40:36.827Z,90.00
2019-02-06T03:41:40.986Z,88.90
2019-02-06T03:42:45.607Z,90.20
2019-02-06T03:43:50.432Z,89.60
2019-02-06T03:44:54.896Z,89.70
2019-02-06T03:45:59.087Z,89.00
2019-02-06T03:47:03.271Z,89.60
2019-02-06T03:48:07.442Z,90.10
2019-02-06T03:49:11.793Z,89.70
2019-02-06T03:50:17.099Z,90.00
2019-02-06T03:51:21.313Z,90.30
2019-02-06T03:52:25.618Z,89.90
2019-02-06T03:53:29.747Z,89.30
2019-02-06T03:54:34.014Z,89.70
2019-02-06T03:55:38.183Z,89.30
2019-02-06T03:56:42.353Z,88.60
2019-02-06T03:57:46.657Z,88.90
2019-02-06T03:58:51.344Z,88.80
2019-02-06T03:59:55.529Z,90.10
2019-02-06T04:00:59.720Z,90.00
2019-02-06T04:02:03.922Z,89.40
2019-02-06T04:03:08.213Z,89.40
2019-02-06T04:04:12.459Z,90.30
2019-02-06T04:05:16.607Z,89.70
2019-02-06T04:06:20.735Z,90.40
2019-02-06T04:07:24.925Z,89.10
2019-02-06T04:08:29.120Z,88.80
2019-02-06T04:09:33.508Z,89.00
2019-02-06T04:10:37.895Z,89.00
2019-02-06T04:11:42.168Z,90.20
2019-02-06T04:12:46.414Z,89.90
2019-02-06T04:13:51.204Z,89.90
2019-02-06T04:14:56.137Z,88.60
2019-02-06T04:16:00.324Z,88.50
2019-02-06T04:17:05.047Z,88.40
2019-02-06T04:18:09.195Z,90.00
2019-02-06T04:19:13.418Z,89.60
2019-02-06T04:20:18.085Z,89.20
2019-02-06T04:21:22.255Z,89.00
2019-02-06T04:22:26.574Z,87.90
2019-02-06T04:23:30.821Z,88.20
2019-02-06T04:24:34.988Z,89.00
2019-02-06T04:25:39.217Z,88.40
2019-02-06T04:26:43.552Z,88.50
2019-02-06T04:27:47.844Z,89.00
2019-02-06T04:28:52.105Z,87.80
2019-02-06T04:29:56.615Z,88.40
2019-02-06T04:31:01.295Z,88.10
2019-02-06T04:32:05.964Z,88.30
2019-02-06T04:33:10.289Z,89.60
2019-02-06T04:34:14.639Z,89.00
2019-02-06T04:35:18.893Z,86.90
2019-02-06T04:36:23.106Z,89.30
2019-02-06T04:37:27.397Z,89.70
2019-02-06T04:38:31.625Z,88.40
2019-02-06T04:39:35.774Z,87.70
2019-02-06T04:40:40.135Z,88.00
2019-02-06T04:41:44.371Z,88.00
2019-02-06T04:42:48.581Z,89.00
2019-02-06T04:43:52.829Z,89.80
2019-02-06T04:44:57.111Z,88.90
2019-02-06T04:46:01.592Z,89.00
2019-02-06T04:47:05.943Z,89.00
2019-02-06T04:48:10.340Z,88.20
2019-02-06T04:49:14.696Z,88.50
2019-02-06T04:50:19.191Z,88.10
2019-02-06T04:51:23.537Z,89.90
2019-02-06T04:52:27.879Z,90.30
2019-02-06T04:53:32.000Z,89.90
2019-02-06T04:54:36.187Z,88.40
2019-02-06T04:55:40.459Z,88.50
2019-02-06T04:56:44.713Z,88.90
2019-02-06T04:57:49.239Z,90.00
2019-02-06T04:58:53.557Z,88.50
2019-02-06T04:59:57.910Z,88.90
2019-02-06T05:01:02.465Z,89.90
2019-02-06T05:02:07.075Z,90.10
2019-02-06T05:03:11.457Z,89.20
2019-02-06T05:04:16.113Z,89.70
2019-02-06T05:05:20.448Z,90.00
2019-02-06T05:06:24.663Z,89.50
2019-02-06T05:07:28.937Z,89.30
2019-02-06T05:08:33.248Z,88.90
2019-02-06T05:09:37.426Z,89.10
2019-02-06T05:10:41.724Z,89.20
2019-02-06T05:11:46.042Z,88.60
2019-02-06T05:12:50.355Z,89.00
2019-02-06T05:13:54.563Z,89.50
2019-02-06T05:14:58.875Z,89.00
2019-02-06T05:16:03.084Z,89.80
2019-02-06T05:17:07.816Z,90.20
2019-02-06T05:18:12.007Z,90.50
2019-02-06T05:19:16.192Z,90.00
2019-02-06T05:20:26.049Z,90.10
2019-02-06T05:21:30.278Z,90.00
2019-02-06T05:22:34.437Z,90.00
2019-02-06T05:23:38.711Z,89.10
2019-02-06T05:24:43.035Z,88.80
2019-02-06T05:25:47.232Z,89.40
2019-02-06T05:26:51.443Z,90.40
2019-02-06T05:27:55.797Z,90.20
2019-02-06T05:29:00.078Z,90.10
2019-02-06T05:30:04.677Z,90.00
2019-02-06T05:31:08.979Z,90.80
2019-02-06T05:32:13.275Z,90.20
2019-02-06T05:33:17.672Z,90.00
2019-02-06T05:34:22.206Z,89.50
2019-02-06T05:35:26.541Z,89.40
2019-02-06T05:36:30.726Z,90.50
2019-02-06T05:37:34.899Z,90.80
2019-02-06T05:38:39.117Z,90.30
2019-02-06T05:39:43.404Z,90.70
2019-02-06T05:40:47.666Z,90.20
2019-02-06T05:41:51.781Z,90.50
2019-02-06T05:42:56.091Z,90.70
2019-02-06T05:44:00.366Z,90.70
2019-02-06T05:45:05.741Z,91.20
2019-02-06T05:46:09.923Z,90.80
2019-02-06T05:47:14.085Z,90.50
2019-02-06T05:48:18.575Z,90.60
2019-02-06T05:49:23.370Z,90.50
2019-02-06T05:50:27.723Z,90.50
2019-02-06T05:51:32.028Z,90.30
2019-02-06T05:52:36.337Z,90.70
2019-02-06T05:53:40.760Z,90.70
2019-02-06T05:54:45.103Z,90.80
2019-02-06T05:55:49.493Z,90.70
2019-02-06T05:56:53.761Z,91.50
2019-02-06T05:57:58.083Z,91.90
2019-02-06T05:59:02.355Z,90.80
2019-02-06T06:00:11.063Z,90.80
2019-02-06T06:01:15.969Z,90.80
2019-02-06T06:02:20.311Z,91.50
2019-02-06T06:03:24.467Z,90.80
2019-02-06T06:04:29.023Z,90.80
2019-02-06T06:05:33.806Z,91.20
2019-02-06T06:06:37.989Z,91.50
2019-02-06T06:07:45.151Z,91.50
2019-02-06T06:08:48.218Z,91.40
2019-02-06T06:09:52.438Z,91.20
2019-02-06T06:10:56.682Z,91.40
2019-02-06T06:12:01.004Z,90.70
2019-02-06T06:13:05.321Z,91.00
2019-02-06T06:14:09.569Z,91.70
2019-02-06T06:15:15.495Z,91.10
2019-02-06T06:16:19.780Z,90.50
2019-02-06T06:17:24.139Z,90.80
2019-02-06T06:18:28.528Z,90.90
2019-02-06T06:19:32.799Z,91.10
2019-02-06T06:20:37.467Z,90.80
2019-02-06T06:21:41.885Z,90.80
2019-02-06T06:22:46.234Z,91.00
2019-02-06T06:23:50.577Z,90.80
2019-02-06T06:24:54.894Z,91.40
2019-02-06T06:25:59.246Z,91.20
2019-02-06T06:27:03.477Z,91.20
2019-02-06T06:28:07.627Z,91.70
2019-02-06T06:29:11.874Z,91.80
2019-02-06T06:30:17.549Z,90.80
2019-02-06T06:31:21.694Z,90.80
2019-02-06T06:32:25.963Z,90.70
2019-02-06T06:33:30.219Z,91.20
2019-02-06T06:34:34.475Z,91.80
2019-02-06T06:35:39.026Z,91.60
2019-02-06T06:36:43.833Z,91.40
2019-02-06T06:37:57.553Z,91.50
2019-02-06T06:38:54.169Z,91.30
2019-02-06T06:39:58.450Z,91.30
2019-02-06T06:41:02.685Z,91.90
2019-02-06T06:42:07.074Z,91.50
2019-02-06T06:43:11.356Z,91.10
2019-02-06T06:44:15.693Z,91.20
2019-02-06T06:45:21.750Z,92.10
2019-02-06T06:46:25.937Z,91.70
2019-02-06T06:47:30.292Z,91.50
2019-02-06T06:48:34.647Z,91.70
2019-02-06T06:49:39.231Z,91.60
2019-02-06T06:50:43.354Z,91.80
2019-02-06T06:51:47.857Z,92.10
2019-02-06T06:52:52.545Z,92.00
2019-02-06T06:53:56.688Z,92.10
2019-02-06T06:55:00.844Z,92.80
2019-02-06T06:56:05.294Z,92.80
2019-02-06T06:57:12.269Z,93.20
2019-02-06T06:58:15.604Z,93.80
2019-02-06T06:59:20.029Z,94.00
2019-02-06T07:00:26.453Z,93.80
2019-02-06T07:01:30.787Z,94.50
2019-02-06T07:02:35.145Z,94.20
2019-02-06T07:03:39.423Z,94.40
2019-02-06T07:04:43.694Z,94.70
2019-02-06T07:05:48.290Z,94.30
2019-02-06T07:06:52.493Z,93.30
2019-02-06T07:08:08.833Z,93.70
2019-02-06T07:09:03.405Z,93.10
2019-02-06T07:10:08.677Z,93.50
2019-02-06T07:11:14.417Z,93.80
2019-02-06T07:12:19.086Z,93.80
2019-02-06T07:13:23.369Z,93.70
2019-02-06T07:14:27.534Z,93.80
2019-02-06T07:15:33.823Z,93.40
2019-02-06T07:16:38.096Z,93.80
2019-02-06T07:17:42.394Z,94.50
2019-02-06T07:18:46.675Z,94.70
2019-02-06T07:19:50.937Z,94.70
2019-02-06T07:20:55.249Z,94.90
2019-02-06T07:21:59.527Z,94.60
2019-02-06T07:23:03.733Z,94.50
2019-02-06T07:24:07.871Z,95.00
2019-02-06T07:25:12.865Z,94.90
2019-02-06T07:26:17.026Z,94.60
2019-02-06T07:27:21.565Z,95.10
2019-02-06T07:28:25.904Z,94.50
2019-02-06T07:29:30.063Z,94.70
2019-02-06T07:30:35.857Z,95.60
2019-02-06T07:31:39.991Z,95.80
2019-02-06T07:32:44.275Z,95.70
2019-02-06T07:33:48.655Z,97.20
2019-02-06T07:34:53.004Z,96.80
2019-02-06T07:35:57.285Z,96.90
2019-02-06T07:37:01.607Z,96.00
2019-02-06T07:38:05.799Z,95.40
2019-02-06T07:39:10.084Z,95.40
2019-02-06T07:40:14.958Z,95.70
2019-02-06T07:41:19.720Z,95.90
2019-02-06T07:42:24.251Z,95.90
2019-02-06T07:43:29.046Z,96.10
2019-02-06T07:44:33.370Z,96.00
2019-02-06T07:45:37.845Z,95.90
2019-02-06T07:46:42.142Z,96.30
2019-02-06T07:47:46.565Z,95.50
2019-02-06T07:48:50.785Z,96.00
2019-02-06T07:49:55.192Z,95.60
2019-02-06T07:50:59.345Z,95.90
2019-02-06T07:52:03.613Z,96.00
2019-02-06T07:53:07.915Z,95.90
2019-02-06T07:54:12.383Z,96.00
2019-02-06T07:55:16.541Z,95.70
2019-02-06T07:56:20.821Z,95.30
2019-02-06T07:57:25.079Z,94.60
2019-02-06T07:58:29.743Z,94.00
2019-02-06T07:59:34.655Z,94.90
2019-02-06T08:00:38.957Z,94.40
2019-02-06T08:01:43.500Z,95.30
2019-02-06T08:02:47.667Z,95.40
2019-02-06T08:03:51.985Z,95.40
2019-02-06T08:04:56.133Z,95.40
2019-02-06T08:06:00.446Z,95.60
2019-02-06T08:07:05.093Z,95.10
2019-02-06T08:08:09.433Z,95.30
2019-02-06T08:09:13.666Z,95.70
2019-02-06T08:10:20.687Z,94.50
2019-02-06T08:11:24.978Z,93.50
2019-02-06T08:12:29.306Z,92.90
2019-02-06T08:13:33.455Z,94.20
2019-02-06T08:14:37.915Z,94.30
2019-02-06T08:15:42.447Z,94.10
2019-02-06T08:16:46.663Z,93.90
2019-02-06T08:17:51.087Z,93.50
2019-02-06T08:18:55.403Z,92.80
2019-02-06T08:19:59.589Z,93.80
2019-02-06T08:21:03.765Z,92.90
2019-02-06T08:22:07.996Z,93.10
2019-02-06T08:23:12.186Z,93.20
2019-02-06T08:24:16.317Z,94.00
2019-02-06T08:25:20.797Z,93.60
2019-02-06T08:26:25.092Z,93.50
2019-02-06T08:27:29.264Z,93.60
2019-02-06T08:28:33.879Z,92.90
2019-02-06T08:29:38.064Z,91.80
2019-02-06T08:30:42.746Z,92.70
2019-02-06T08:31:47.102Z,92.70
2019-02-06T08:32:51.479Z,92.90
2019-02-06T08:33:55.777Z,92.60
2019-02-06T08:35:00.009Z,93.50
2019-02-06T08:36:04.329Z,93.50
2019-02-06T08:37:08.599Z,93.10
2019-02-06T08:38:12.773Z,92.90
2019-02-06T08:39:17.097Z,92.50
2019-02-06T08:40:23.016Z,92.40
2019-02-06T08:41:27.367Z,92.60
2019-02-06T08:42:31.594Z,92.20
2019-02-06T08:43:35.843Z,92.60
2019-02-06T08:44:40.173Z,92.40
2019-02-06T08:45:44.541Z,91.80
2019-02-06T08:46:49.098Z,92.60
2019-02-06T08:47:54.212Z,92.50
2019-02-06T08:48:58.573Z,92.60
2019-02-06T08:50:02.843Z,92.80
2019-02-06T08:51:07.264Z,92.90
2019-02-06T08:52:11.425Z,92.90
2019-02-06T08:53:15.682Z,92.40
2019-02-06T08:54:20.357Z,92.10
2019-02-06T08:55:27.402Z,92.00
2019-02-06T08:56:31.635Z,91.60
2019-02-06T08:57:35.791Z,92.10
2019-02-06T08:58:40.083Z,92.30
2019-02-06T08:59:44.362Z,92.60
2019-02-06T09:00:48.545Z,92.00
2019-02-06T09:01:52.862Z,92.40
2019-02-06T09:02:57.663Z,92.50
2019-02-06T09:04:02.386Z,92.90
2019-02-06T09:05:07.689Z,93.10
2019-02-06T09:06:12.110Z,92.70
2019-02-06T09:07:16.461Z,92.80
2019-02-06T09:08:20.873Z,93.00
2019-02-06T09:09:25.092Z,92.80
2019-02-06T09:10:29.460Z,93.50
2019-02-06T09:11:33.771Z,92.90
2019-02-06T09:12:37.975Z,92.80
2019-02-06T09:13:42.275Z,92.80
2019-02-06T09:14:46.544Z,92.50
2019-02-06T09:15:50.871Z,92.10
2019-02-06T09:16:55.197Z,92.70
2019-02-06T09:17:59.447Z,92.10
2019-02-06T09:19:03.832Z,92.30
2019-02-06T09:20:11.482Z,92.70
2019-02-06T09:21:15.987Z,92.60
2019-02-06T09:22:20.245Z,91.60
2019-02-06T09:23:24.601Z,92.20
2019-02-06T09:24:28.760Z,91.80
2019-02-06T09:25:32.971Z,92.80
2019-02-06T09:26:37.239Z,92.10
2019-02-06T09:27:41.630Z,91.80
2019-02-06T09:28:46.001Z,92.10
2019-02-06T09:29:50.257Z,92.00
2019-02-06T09:30:54.929Z,91.80
2019-02-06T09:31:59.542Z,91.10
2019-02-06T09:33:04.851Z,91.10
2019-02-06T09:34:09.725Z,91.80
2019-02-06T09:35:14.638Z,91.70
2019-02-06T09:36:19.323Z,91.60
2019-02-06T09:37:23.767Z,92.60
2019-02-06T09:38:28.041Z,91.70
2019-02-06T09:39:32.363Z,91.60
2019-02-06T09:40:36.820Z,91.90
2019-02-06T09:41:41.127Z,91.50
2019-02-06T09:42:45.407Z,92.40
2019-02-06T09:43:49.595Z,91.00
2019-02-06T09:44:54.095Z,91.80
2019-02-06T09:45:58.364Z,92.70
2019-02-06T09:47:02.583Z,93.20
2019-02-06T09:48:07.004Z,92.40
2019-02-06T09:49:11.392Z,92.00
2019-02-06T09:50:21.755Z,92.00
2019-02-06T09:51:25.995Z,92.10
2019-02-06T09:52:30.266Z,92.10
2019-02-06T09:53:34.871Z,91.90
2019-02-06T09:54:39.231Z,91.40
2019-02-06T09:55:43.359Z,91.10
2019-02-06T09:56:50.518Z,91.00
2019-02-06T09:57:53.637Z,91.30
2019-02-06T09:58:57.874Z,91.90
2019-02-06T10:00:02.220Z,91.40
2019-02-06T10:01:06.463Z,92.10
2019-02-06T10:02:10.635Z,93.00
2019-02-06T10:03:14.845Z,93.30
2019-02-06T10:04:19.249Z,92.00
2019-02-06T10:05:23.824Z,92.90
2019-02-06T10:06:28.030Z,92.50
2019-02-06T10:07:32.269Z,92.40
2019-02-06T10:08:36.969Z,92.70
2019-02-06T10:09:41.541Z,92.10
2019-02-06T10:10:45.854Z,91.60
2019-02-06T10:11:50.001Z,91.40
2019-02-06T10:12:54.295Z,92.00
2019-02-06T10:13:58.573Z,92.00
2019-02-06T10:15:02.935Z,91.60
2019-02-06T10:16:07.279Z,91.00
2019-02-06T10:17:11.513Z,91.90
2019-02-06T10:18:15.827Z,92.10
2019-02-06T10:19:19.992Z,91.80
2019-02-06T10:20:25.913Z,92.20
2019-02-06T10:21:30.073Z,92.40
2019-02-06T10:22:34.391Z,92.40
2019-02-06T10:23:38.612Z,91.90
2019-02-06T10:24:43.165Z,92.20
2019-02-06T10:25:47.712Z,91.90
2019-02-06T10:26:52.009Z,92.10
2019-02-06T10:27:56.233Z,91.20
2019-02-06T10:29:00.572Z,90.80
2019-02-06T10:30:06.559Z,91.40
2019-02-06T10:31:10.835Z,91.90
2019-02-06T10:32:15.056Z,91.60
2019-02-06T10:33:19.583Z,91.70
2019-02-06T10:34:24.167Z,91.30
2019-02-06T10:35:28.474Z,91.20
2019-02-06T10:36:32.976Z,91.10
2019-02-06T10:37:37.141Z,90.90
2019-02-06T10:38:41.455Z,90.80
2019-02-06T10:39:45.639Z,91.60
2019-02-06T10:40:50.106Z,91.60
2019-02-06T10:41:54.734Z,92.00
2019-02-06T10:42:59.047Z,91.20
2019-02-06T10:44:03.167Z,90.50
2019-02-06T10:45:08.309Z,91.60
2019-02-06T10:46:12.591Z,92.20
2019-02-06T10:47:16.852Z,92.20
2019-02-06T10:48:21.409Z,92.30
2019-02-06T10:49:25.591Z,92.50
2019-02-06T10:50:32.725Z,92.50
2019-02-06T10:51:36.892Z,92.60
2019-02-06T10:52:41.251Z,91.20
2019-02-06T10:53:45.527Z,92.00
2019-02-06T10:54:49.852Z,91.60
2019-02-06T10:55:54.225Z,91.70
2019-02-06T10:56:58.701Z,91.30
2019-02-06T10:58:03.451Z,91.50
2019-02-06T10:59:07.755Z,91.80
2019-02-06T11:00:21.681Z,92.30
2019-02-06T11:01:26.017Z,92.10
2019-02-06T11:02:30.652Z,92.40
2019-02-06T11:03:34.918Z,92.70
2019-02-06T11:04:39.131Z,92.20
2019-02-06T11:05:43.302Z,92.30
2019-02-06T11:06:47.804Z,92.30
2019-02-06T11:07:52.059Z,93.10
2019-02-06T11:08:56.258Z,92.20
2019-02-06T11:10:00.566Z,91.90
2019-02-06T11:11:05.097Z,91.80
2019-02-06T11:12:09.466Z,92.30
2019-02-06T11:13:13.645Z,92.60
2019-02-06T11:14:17.902Z,91.20
2019-02-06T11:15:23.123Z,92.10
2019-02-06T11:16:27.796Z,91.90
2019-02-06T11:17:32.089Z,92.70
2019-02-06T11:18:36.413Z,93.40
2019-02-06T11:19:43.035Z,93.80
2019-02-06T11:20:46.734Z,93.40
2019-02-06T11:21:51.113Z,93.50
2019-02-06T11:22:55.779Z,93.80
2019-02-06T11:24:00.069Z,93.20
2019-02-06T11:25:06.078Z,93.00
2019-02-06T11:26:10.321Z,93.00
2019-02-06T11:27:14.744Z,93.20
2019-02-06T11:28:18.925Z,93.50
2019-02-06T11:29:23.072Z,93.70
2019-02-06T11:30:28.345Z,92.80
2019-02-06T11:31:32.649Z,92.90
2019-02-06T11:32:36.995Z,93.20
2019-02-06T11:33:41.608Z,92.90
2019-02-06T11:34:45.807Z,92.90
2019-02-06T11:35:50.127Z,92.30
2019-02-06T11:36:54.811Z,92.20
2019-02-06T11:37:59.064Z,92.50
2019-02-06T11:39:05.041Z,93.10
2019-02-06T11:40:15.267Z,92.90
2019-02-06T11:41:18.869Z,92.50
2019-02-06T11:42:23.003Z,92.10
2019-02-06T11:43:27.323Z,92.20
2019-02-06T11:44:31.484Z,92.30
2019-02-06T11:45:35.999Z,92.60
2019-02-06T11:46:41.419Z,92.30
2019-02-06T11:47:45.827Z,91.50
2019-02-06T11:48:50.221Z,91.80
2019-02-06T11:49:57.026Z,93.00
2019-02-06T11:51:01.772Z,92.30
2019-02-06T11:52:06.573Z,91.20
2019-02-06T11:53:19.907Z,92.60
2019-02-06T11:54:24.322Z,91.90
2019-02-06T11:55:28.690Z,93.30
2019-02-06T11:56:32.901Z,93.50
2019-02-06T11:57:37.035Z,92.50
2019-02-06T11:58:41.244Z,91.70
2019-02-06T11:59:45.894Z,92.60
2019-02-06T12:00:59.009Z,93.30
2019-02-06T12:02:03.280Z,92.50
2019-02-06T12:03:07.713Z,92.40
2019-02-06T12:04:11.822Z,91.90
2019-02-06T12:05:16.090Z,91.50
2019-02-06T12:06:20.397Z,92.10
2019-02-06T12:07:24.628Z,93.40
2019-02-06T12:08:31.161Z,92.20
2019-02-06T12:09:34.848Z,92.80
2019-02-06T12:10:39.111Z,92.60
2019-02-06T12:11:43.441Z,92.10
2019-02-06T12:12:48.307Z,92.10
2019-02-06T12:13:52.597Z,92.00
2019-02-06T12:14:56.906Z,92.00
2019-02-06T12:16:01.221Z,92.90
2019-02-06T12:17:05.520Z,91.90
2019-02-06T12:18:10.020Z,92.90
2019-02-06T12:19:14.448Z,92.70
2019-02-06T12:20:20.071Z,92.70
2019-02-06T12:21:24.271Z,93.70
2019-02-06T12:22:28.607Z,93.10
2019-02-06T12:23:32.905Z,92.30
2019-02-06T12:24:37.157Z,91.80
2019-02-06T12:25:41.489Z,92.00
2019-02-06T12:26:45.845Z,92.60
2019-02-06T12:27:50.500Z,93.10
2019-02-06T12:28:54.697Z,92.30
2019-02-06T12:29:58.907Z,92.80
2019-02-06T12:31:03.044Z,91.90
2019-02-06T12:32:07.250Z,93.20
2019-02-06T12:33:11.554Z,93.40
2019-02-06T12:34:15.858Z,93.50
2019-02-06T12:35:20.107Z,93.90
2019-02-06T12:36:24.495Z,94.50
2019-02-06T12:37:28.689Z,93.90
2019-02-06T12:38:32.971Z,93.30
2019-02-06T12:39:37.279Z,92.30
2019-02-06T12:40:41.405Z,92.60
2019-02-06T12:41:45.782Z,93.10
2019-02-06T12:42:50.492Z,92.40
2019-02-06T12:43:54.758Z,91.30
2019-02-06T12:44:59.251Z,92.80
2019-02-06T12:46:03.668Z,93.30
2019-02-06T12:47:07.973Z,93.00
2019-02-06T12:48:12.259Z,93.10
2019-02-06T12:49:16.439Z,93.00
2019-02-06T12:50:20.867Z,93.90
2019-02-06T12:51:30.748Z,94.30
2019-02-06T12:52:35.015Z,94.20
2019-02-06T12:53:39.204Z,94.20
2019-02-06T12:54:43.387Z,92.40
2019-02-06T12:55:47.552Z,92.10
2019-02-06T12:56:52.201Z,92.80
2019-02-06T12:57:56.436Z,93.80
2019-02-06T12:59:00.715Z,94.30
2019-02-06T13:00:08.945Z,94.10
2019-02-06T13:01:13.325Z,93.40
2019-02-06T13:02:17.563Z,93.20
2019-02-06T13:03:21.801Z,92.70
2019-02-06T13:04:26.085Z,91.90
2019-02-06T13:05:31.105Z,93.30
2019-02-06T13:06:35.305Z,93.20
2019-02-06T13:07:39.586Z,93.10
2019-02-06T13:08:43.966Z,93.50
2019-02-06T13:09:48.285Z,92.70
2019-02-06T13:10:52.629Z,92.70
2019-02-06T13:11:56.904Z,92.90
2019-02-06T13:13:01.577Z,91.60
2019-02-06T13:14:05.979Z,92.50
2019-02-06T13:15:12.139Z,93.30
2019-02-06T13:16:16.381Z,93.20
2019-02-06T13:17:20.614Z,94.10
2019-02-06T13:18:24.969Z,94.20
2019-02-06T13:19:29.193Z,93.30
2019-02-06T13:20:33.599Z,92.20
2019-02-06T13:21:37.993Z,93.40
2019-02-06T13:22:42.315Z,93.80
2019-02-06T13:23:49.378Z,93.30
2019-02-06T13:24:52.335Z,93.40
2019-02-06T13:25:56.637Z,92.90
2019-02-06T13:27:00.939Z,93.50
2019-02-06T13:28:05.501Z,93.20
2019-02-06T13:29:10.135Z,93.70
2019-02-06T13:30:23.751Z,92.80
2019-02-06T13:31:28.186Z,92.70
2019-02-06T13:32:32.711Z,93.50
2019-02-06T13:33:37.112Z,93.20
2019-02-06T13:34:41.675Z,92.90
2019-02-06T13:35:45.963Z,93.20
2019-02-06T13:36:50.198Z,93.70
2019-02-06T13:37:54.667Z,93.70
2019-02-06T13:38:58.864Z,92.60
2019-02-06T13:40:03.055Z,93.20
2019-02-06T13:41:07.463Z,93.10
2019-02-06T13:42:11.618Z,92.90
2019-02-06T13:43:16.178Z,92.10
2019-02-06T13:44:20.346Z,92.60
2019-02-06T13:45:30.255Z,93.00
2019-02-06T13:46:34.693Z,92.70
2019-02-06T13:47:39.020Z,92.90
2019-02-06T13:48:43.551Z,93.10
2019-02-06T13:49:48.416Z,92.50
2019-02-06T13:50:52.679Z,92.50
2019-02-06T13:51:56.919Z,93.20
2019-02-06T13:53:01.227Z,92.60